Airfield :
LOGIN :

Register | Disclaimer

   EN    FR    IT 

 










Legend :    VFR   Marginal VFR   IFR   Intensive IFR   Very Intensive IFR
Visi :
Ceiling :
>= 8 km
>= 3000ft
5 to 8 km
1000 to 3000 ft
1500m to 5 km
500 to 1000 ft
800 to 1500m
200 to 500 ft
< 800m
< 200 ft
Symbols :   Thunderstorms  Fog  Heavy snow  Heavy precipitations  Wind > 20 kt
SIGMETs :     Misc.  Thunderstorms  Icing  Turbulence  Mountain Waves  Volcanic Ashes






- Airport Elevation : 56 ft


LPOV - Ovar Air Base

CURRENT METAR :
  • 270600Z 17013KT 6000 -RADZ BKN007 BKN015 13/12 Q1019

TAF AMD TAF LPOV
Valid from the 27 at 06:00 until the 28 at 06:00 UTC


270603Z 2706/2806 17015KT 9999 SCT007 BKN015
TEMPO 2706/2713 17020G30KT 2000 RADZ BR SCT002 BKN004
BECMG 2713/2715 23010KT SCT020
BECMG 2718/2720 19012KT SCT008 BKN020
TEMPO 2718/2806 3000 RADZ BR SCT007 BKN014
PROB40
TEMPO 2721/2801 20015G25KT 1500 RADZ BR BKN004
BECMG 2801/2803 VRB02KT FEW012 SCT025



MET'MAP, your aeronautical weather chart ! - Copyright ORBIFLY December 2007 - Disclaimer

ORBIFLY MET'MAP TEAM :

Programming & Development : Alexandra Zaïnal
Concept & original design : Baudouin d'Aumeries
Assistance for programming : Marc-Olivier Méhu
Technical & hardware support : Manuel Goepfert

Contact : metmap@orbifly.com




SOURCES & CREDITS :

   NOAA